sensor_id;sensor_type;location;lat;lon;timestamp;P1;durP1;ratioP1;P2;durP2;ratioP2
60306;SDS011;46155;52.364;6.580;2022-10-16T03:03:09;23.23;;;21.50;;
60306;SDS011;46155;52.364;6.580;2022-10-16T03:05:34;22.37;;;21.17;;
60306;SDS011;46155;52.364;6.580;2022-10-16T03:08:00;22.47;;;21.07;;
60306;SDS011;46155;52.364;6.580;2022-10-16T03:10:26;22.77;;;21.23;;
60306;SDS011;46155;52.364;6.580;2022-10-16T03:12:51;22.43;;;21.07;;
60306;SDS011;46155;52.364;6.580;2022-10-16T03:15:17;24.10;;;21.83;;
60306;SDS011;46155;52.364;6.580;2022-10-16T03:17:42;23.80;;;22.17;;
60306;SDS011;46155;52.364;6.580;2022-10-16T03:20:08;22.60;;;21.40;;
60306;SDS011;46155;52.364;6.580;2022-10-16T03:22:33;22.93;;;21.30;;
60306;SDS011;46155;52.364;6.580;2022-10-16T03:24:59;22.30;;;20.93;;
60306;SDS011;46155;52.364;6.580;2022-10-16T03:27:24;21.83;;;20.63;;
60306;SDS011;46155;52.364;6.580;2022-10-16T03:29:50;23.37;;;21.77;;
60306;SDS011;46155;52.364;6.580;2022-10-16T03:32:15;22.80;;;21.40;;
60306;SDS011;46155;52.364;6.580;2022-10-16T03:34:40;22.47;;;20.90;;
60306;SDS011;46155;52.364;6.580;2022-10-16T03:37:05;23.53;;;21.63;;
60306;SDS011;46155;52.364;6.580;2022-10-16T03:39:31;21.07;;;19.87;;
60306;SDS011;46155;52.364;6.580;2022-10-16T03:41:56;21.30;;;19.63;;
60306;SDS011;46155;52.364;6.580;2022-10-16T03:44:21;21.47;;;20.03;;
60306;SDS011;46155;52.364;6.580;2022-10-16T03:46:47;21.20;;;20.00;;
60306;SDS011;46155;52.364;6.580;2022-10-16T03:49:12;20.23;;;19.13;;
60306;SDS011;46155;52.364;6.580;2022-10-16T03:51:37;22.20;;;20.80;;
60306;SDS011;46155;52.364;6.580;2022-10-16T03:54:03;20.03;;;18.87;;
60306;SDS011;46155;52.364;6.580;2022-10-16T03:56:28;20.20;;;19.10;;
60306;SDS011;46155;52.364;6.580;2022-10-16T03:58:53;21.80;;;20.20;;
60306;SDS011;46155;52.364;6.580;2022-10-16T04:01:18;21.50;;;19.80;;
60306;SDS011;46155;52.364;6.580;2022-10-16T04:03:44;22.17;;;20.57;;
60306;SDS011;46155;52.364;6.580;2022-10-16T04:06:09;20.73;;;19.63;;
60306;SDS011;46155;52.364;6.580;2022-10-16T04:08:34;21.40;;;20.03;;
60306;SDS011;46155;52.364;6.580;2022-10-16T04:11:01;20.37;;;19.17;;
60306;SDS011;46155;52.364;6.580;2022-10-16T04:13:27;20.43;;;19.33;;
60306;SDS011;46155;52.364;6.580;2022-10-16T04:15:52;21.77;;;20.40;;
60306;SDS011;46155;52.364;6.580;2022-10-16T04:18:17;21.30;;;19.83;;
60306;SDS011;46155;52.364;6.580;2022-10-16T04:20:43;21.23;;;20.03;;
60306;SDS011;46155;52.364;6.580;2022-10-16T04:23:08;20.50;;;19.40;;
60306;SDS011;46155;52.364;6.580;2022-10-16T04:25:34;21.53;;;20.23;;
60306;SDS011;46155;52.364;6.580;2022-10-16T04:27:59;21.10;;;19.70;;
60306;SDS011;46155;52.364;6.580;2022-10-16T04:30:24;21.47;;;20.27;;
60306;SDS011;46155;52.364;6.580;2022-10-16T04:32:50;22.10;;;20.53;;
60306;SDS011;46155;52.364;6.580;2022-10-16T04:35:17;21.33;;;19.90;;
60306;SDS011;46155;52.364;6.580;2022-10-16T04:37:43;22.37;;;21.13;;
60306;SDS011;46155;52.364;6.580;2022-10-16T04:40:08;20.87;;;19.77;;
60306;SDS011;46155;52.364;6.580;2022-10-16T04:42:34;20.87;;;19.50;;
60306;SDS011;46155;52.364;6.580;2022-10-16T04:44:59;20.90;;;19.80;;
60306;SDS011;46155;52.364;6.580;2022-10-16T04:47:24;20.90;;;19.47;;
60306;SDS011;46155;52.364;6.580;2022-10-16T04:49:49;21.37;;;19.87;;
60306;SDS011;46155;52.364;6.580;2022-10-16T04:52:15;21.07;;;19.67;;
60306;SDS011;46155;52.364;6.580;2022-10-16T04:54:40;19.27;;;18.23;;
60306;SDS011;46155;52.364;6.580;2022-10-16T04:57:05;21.90;;;20.53;;
60306;SDS011;46155;52.364;6.580;2022-10-16T04:59:31;22.13;;;20.23;;
60306;SDS011;46155;52.364;6.580;2022-10-16T05:01:56;20.97;;;19.77;;
60306;SDS011;46155;52.364;6.580;2022-10-16T05:04:21;19.90;;;18.77;;
60306;SDS011;46155;52.364;6.580;2022-10-16T05:06:47;21.43;;;19.97;;
60306;SDS011;46155;52.364;6.580;2022-10-16T05:09:13;20.37;;;19.23;;
60306;SDS011;46155;52.364;6.580;2022-10-16T05:11:38;20.63;;;19.53;;
60306;SDS011;46155;52.364;6.580;2022-10-16T05:14:03;21.20;;;20.03;;
60306;SDS011;46155;52.364;6.580;2022-10-16T05:16:29;21.33;;;19.97;;
60306;SDS011;46155;52.364;6.580;2022-10-16T05:18:55;21.53;;;20.00;;
60306;SDS011;46155;52.364;6.580;2022-10-16T05:21:21;21.47;;;20.17;;
60306;SDS011;46155;52.364;6.580;2022-10-16T05:23:46;22.27;;;20.77;;
60306;SDS011;46155;52.364;6.580;2022-10-16T05:26:12;23.20;;;21.70;;
60306;SDS011;46155;52.364;6.580;2022-10-16T05:28:37;20.37;;;19.07;;
60306;SDS011;46155;52.364;6.580;2022-10-16T05:31:06;23.10;;;21.00;;
60306;SDS011;46155;52.364;6.580;2022-10-16T05:33:33;21.47;;;20.30;;
60306;SDS011;46155;52.364;6.580;2022-10-16T05:36:04;20.73;;;19.63;;
60306;SDS011;46155;52.364;6.580;2022-10-16T05:38:32;23.80;;;21.93;;
60306;SDS011;46155;52.364;6.580;2022-10-16T05:41:01;21.93;;;20.57;;
60306;SDS011;46155;52.364;6.580;2022-10-16T05:43:28;21.87;;;20.63;;
60306;SDS011;46155;52.364;6.580;2022-10-16T05:45:57;21.90;;;20.53;;
60306;SDS011;46155;52.364;6.580;2022-10-16T05:48:24;22.87;;;21.47;;
60306;SDS011;46155;52.364;6.580;2022-10-16T05:51:03;21.87;;;20.67;;
60306;SDS011;46155;52.364;6.580;2022-10-16T05:53:32;24.70;;;23.23;;
60306;SDS011;46155;52.364;6.580;2022-10-16T05:55:58;23.93;;;22.50;;
60306;SDS011;46155;52.364;6.580;2022-10-16T05:58:24;23.60;;;22.30;;
60306;SDS011;46155;52.364;6.580;2022-10-16T06:00:57;23.53;;;21.50;;
60306;SDS011;46155;52.364;6.580;2022-10-16T06:03:24;22.23;;;20.67;;
60306;SDS011;46155;52.364;6.580;2022-10-16T06:05:50;21.00;;;19.77;;
60306;SDS011;46155;52.364;6.580;2022-10-16T06:08:15;20.10;;;18.80;;
60306;SDS011;46155;52.364;6.580;2022-10-16T06:10:41;20.73;;;18.70;;
60306;SDS011;46155;52.364;6.580;2022-10-16T06:13:06;18.90;;;17.80;;
60306;SDS011;46155;52.364;6.580;2022-10-16T06:15:31;18.53;;;17.37;;
60306;SDS011;46155;52.364;6.580;2022-10-16T06:17:57;17.10;;;15.63;;
60306;SDS011;46155;52.364;6.580;2022-10-16T06:20:22;16.97;;;15.97;;
60306;SDS011;46155;52.364;6.580;2022-10-16T06:22:47;14.80;;;14.00;;
60306;SDS011;46155;52.364;6.580;2022-10-16T06:25:13;15.13;;;13.97;;
60306;SDS011;46155;52.364;6.580;2022-10-16T06:27:41;14.90;;;13.97;;
60306;SDS011;46155;52.364;6.580;2022-10-16T06:30:06;16.10;;;15.00;;
60306;SDS011;46155;52.364;6.580;2022-10-16T06:32:32;15.73;;;14.37;;
60306;SDS011;46155;52.364;6.580;2022-10-16T06:34:58;14.97;;;14.13;;
60306;SDS011;46155;52.364;6.580;2022-10-16T06:37:23;15.07;;;13.97;;
60306;SDS011;46155;52.364;6.580;2022-10-16T06:39:49;14.87;;;13.63;;
60306;SDS011;46155;52.364;6.580;2022-10-16T06:42:17;15.33;;;14.43;;
60306;SDS011;46155;52.364;6.580;2022-10-16T06:44:42;14.60;;;13.80;;
60306;SDS011;46155;52.364;6.580;2022-10-16T06:47:08;16.17;;;15.00;;
60306;SDS011;46155;52.364;6.580;2022-10-16T06:49:33;15.73;;;14.50;;
60306;SDS011;46155;52.364;6.580;2022-10-16T06:51:58;15.33;;;14.43;;
60306;SDS011;46155;52.364;6.580;2022-10-16T06:54:23;15.43;;;14.50;;
60306;SDS011;46155;52.364;6.580;2022-10-16T06:56:49;14.30;;;13.50;;
60306;SDS011;46155;52.364;6.580;2022-10-16T06:59:16;14.93;;;13.93;;
60306;SDS011;46155;52.364;6.580;2022-10-16T07:01:41;14.03;;;13.03;;
60306;SDS011;46155;52.364;6.580;2022-10-16T07:04:06;13.20;;;12.50;;
60306;SDS011;46155;52.364;6.580;2022-10-16T07:06:32;13.80;;;12.80;;
60306;SDS011;46155;52.364;6.580;2022-10-16T07:09:00;14.10;;;13.20;;
60306;SDS011;46155;52.364;6.580;2022-10-16T07:11:27;13.67;;;12.90;;
60306;SDS011;46155;52.364;6.580;2022-10-16T07:13:52;14.40;;;13.17;;
60306;SDS011;46155;52.364;6.580;2022-10-16T07:16:18;13.20;;;12.50;;
60306;SDS011;46155;52.364;6.580;2022-10-16T07:18:45;14.10;;;13.10;;
60306;SDS011;46155;52.364;6.580;2022-10-16T07:21:19;13.23;;;12.23;;
60306;SDS011;46155;52.364;6.580;2022-10-16T07:23:45;14.43;;;13.47;;
60306;SDS011;46155;52.364;6.580;2022-10-16T07:26:15;14.27;;;13.27;;
60306;SDS011;46155;52.364;6.580;2022-10-16T07:28:40;13.30;;;12.60;;
60306;SDS011;46155;52.364;6.580;2022-10-16T07:31:09;14.20;;;13.20;;
60306;SDS011;46155;52.364;6.580;2022-10-16T07:33:36;13.67;;;12.97;;
60306;SDS011;46155;52.364;6.580;2022-10-16T07:36:03;12.77;;;12.07;;
60306;SDS011;46155;52.364;6.580;2022-10-16T07:38:29;14.33;;;13.53;;
60306;SDS011;46155;52.364;6.580;2022-10-16T07:40:58;12.83;;;11.97;;
60306;SDS011;46155;52.364;6.580;2022-10-16T07:43:34;13.20;;;12.43;;
60306;SDS011;46155;52.364;6.580;2022-10-16T07:46:00;13.13;;;12.03;;
60306;SDS011;46155;52.364;6.580;2022-10-16T07:48:32;13.83;;;12.67;;
60306;SDS011;46155;52.364;6.580;2022-10-16T07:50:59;12.40;;;11.60;;
60306;SDS011;46155;52.364;6.580;2022-10-16T07:53:26;11.83;;;11.03;;
60306;SDS011;46155;52.364;6.580;2022-10-16T07:55:52;11.10;;;10.37;;
60306;SDS011;46155;52.364;6.580;2022-10-16T07:58:22;11.10;;;10.30;;
60306;SDS011;46155;52.364;6.580;2022-10-16T08:00:47;10.40;;;9.80;;
60306;SDS011;46155;52.364;6.580;2022-10-16T08:03:13;11.40;;;10.70;;
60306;SDS011;46155;52.364;6.580;2022-10-16T08:05:38;11.97;;;10.87;;
60306;SDS011;46155;52.364;6.580;2022-10-16T08:08:03;12.37;;;11.57;;
60306;SDS011;46155;52.364;6.580;2022-10-16T08:10:29;12.10;;;11.40;;
60306;SDS011;46155;52.364;6.580;2022-10-16T08:12:54;12.10;;;11.40;;
60306;SDS011;46155;52.364;6.580;2022-10-16T08:15:20;12.57;;;11.57;;
60306;SDS011;46155;52.364;6.580;2022-10-16T08:17:55;11.33;;;10.53;;
60306;SDS011;46155;52.364;6.580;2022-10-16T08:20:22;11.40;;;10.80;;
60306;SDS011;46155;52.364;6.580;2022-10-16T08:22:47;11.43;;;10.70;;
60306;SDS011;46155;52.364;6.580;2022-10-16T08:25:13;12.03;;;10.90;;
60306;SDS011;46155;52.364;6.580;2022-10-16T08:27:38;10.37;;;9.80;;
60306;SDS011;46155;52.364;6.580;2022-10-16T08:30:03;11.20;;;10.40;;
60306;SDS011;46155;52.364;6.580;2022-10-16T08:32:29;11.73;;;11.03;;
60306;SDS011;46155;52.364;6.580;2022-10-16T08:34:54;11.30;;;10.23;;
60306;SDS011;46155;52.364;6.580;2022-10-16T08:37:20;11.30;;;10.50;;
60306;SDS011;46155;52.364;6.580;2022-10-16T08:39:45;9.87;;;9.37;;
60306;SDS011;46155;52.364;6.580;2022-10-16T08:42:20;10.97;;;10.27;;
60306;SDS011;46155;52.364;6.580;2022-10-16T08:47:35;11.17;;;10.33;;
60306;SDS011;46155;52.364;6.580;2022-10-16T08:50:12;11.17;;;10.37;;
60306;SDS011;46155;52.364;6.580;2022-10-16T08:52:49;12.10;;;10.27;;
60306;SDS011;46155;52.364;6.580;2022-10-16T08:55:27;10.57;;;9.70;;
60306;SDS011;46155;52.364;6.580;2022-10-16T08:58:10;9.60;;;8.80;;
60306;SDS011;46155;52.364;6.580;2022-10-16T09:00:38;9.17;;;8.57;;
60306;SDS011;46155;52.364;6.580;2022-10-16T09:03:07;9.30;;;8.80;;
60306;SDS011;46155;52.364;6.580;2022-10-16T09:08:51;11.07;;;10.10;;
60306;SDS011;46155;52.364;6.580;2022-10-16T09:14:40;9.40;;;8.47;;
60306;SDS011;46155;52.364;6.580;2022-10-16T09:22:38;8.83;;;8.03;;
60306;SDS011;46155;52.364;6.580;2022-10-16T09:25:11;8.70;;;8.10;;
60306;SDS011;46155;52.364;6.580;2022-10-16T09:27:45;9.17;;;8.37;;
60306;SDS011;46155;52.364;6.580;2022-10-16T09:30:15;8.63;;;8.03;;
60306;SDS011;46155;52.364;6.580;2022-10-16T09:32:43;9.17;;;8.27;;
60306;SDS011;46155;52.364;6.580;2022-10-16T09:35:14;8.60;;;8.00;;
60306;SDS011;46155;52.364;6.580;2022-10-16T09:37:44;9.03;;;8.00;;
60306;SDS011;46155;52.364;6.580;2022-10-16T09:40:23;8.60;;;7.90;;
60306;SDS011;46155;52.364;6.580;2022-10-16T09:43:02;9.87;;;8.40;;
60306;SDS011;46155;52.364;6.580;2022-10-16T09:45:28;7.23;;;6.73;;
60306;SDS011;46155;52.364;6.580;2022-10-16T09:47:54;7.87;;;7.30;;
60306;SDS011;46155;52.364;6.580;2022-10-16T09:50:23;7.77;;;7.17;;
60306;SDS011;46155;52.364;6.580;2022-10-16T09:53:01;8.30;;;7.80;;
60306;SDS011;46155;52.364;6.580;2022-10-16T09:55:29;8.50;;;7.90;;
60306;SDS011;46155;52.364;6.580;2022-10-16T09:57:54;7.77;;;7.03;;
60306;SDS011;46155;52.364;6.580;2022-10-16T10:00:20;8.17;;;7.43;;
60306;SDS011;46155;52.364;6.580;2022-10-16T10:02:47;8.03;;;7.33;;
60306;SDS011;46155;52.364;6.580;2022-10-16T10:05:26;7.63;;;7.03;;
60306;SDS011;46155;52.364;6.580;2022-10-16T10:07:59;8.20;;;7.40;;
60306;SDS011;46155;52.364;6.580;2022-10-16T10:10:31;7.83;;;7.03;;
60306;SDS011;46155;52.364;6.580;2022-10-16T10:12:59;9.30;;;7.93;;
60306;SDS011;46155;52.364;6.580;2022-10-16T10:15:24;8.07;;;7.43;;
60306;SDS011;46155;52.364;6.580;2022-10-16T10:17:53;8.93;;;7.40;;
60306;SDS011;46155;52.364;6.580;2022-10-16T10:20:22;6.83;;;6.37;;
60306;SDS011;46155;52.364;6.580;2022-10-16T10:22:48;8.00;;;6.73;;
60306;SDS011;46155;52.364;6.580;2022-10-16T10:41:52;8.67;;;7.80;;
60306;SDS011;46155;52.364;6.580;2022-10-16T10:57:55;9.83;;;6.30;;
60306;SDS011;46155;52.364;6.580;2022-10-16T11:00:34;7.73;;;6.60;;
60306;SDS011;46155;52.364;6.580;2022-10-16T11:05:53;8.27;;;6.37;;
60306;SDS011;46155;52.364;6.580;2022-10-16T11:08:43;6.50;;;6.00;;
60306;SDS011;46155;52.364;6.580;2022-10-16T11:11:15;8.17;;;7.13;;
60306;SDS011;46155;52.364;6.580;2022-10-16T11:13:53;6.70;;;6.13;;
60306;SDS011;46155;52.364;6.580;2022-10-16T11:16:34;7.30;;;6.27;;
60306;SDS011;46155;52.364;6.580;2022-10-16T11:19:12;9.53;;;6.80;;
60306;SDS011;46155;52.364;6.580;2022-10-16T11:21:47;6.03;;;5.53;;
60306;SDS011;46155;52.364;6.580;2022-10-16T11:24:21;6.97;;;6.30;;
60306;SDS011;46155;52.364;6.580;2022-10-16T11:26:54;11.97;;;6.77;;
60306;SDS011;46155;52.364;6.580;2022-10-16T11:29:23;6.63;;;5.73;;
60306;SDS011;46155;52.364;6.580;2022-10-16T11:31:58;6.43;;;5.87;;
60306;SDS011;46155;52.364;6.580;2022-10-16T11:39:48;8.33;;;6.00;;
60306;SDS011;46155;52.364;6.580;2022-10-16T11:42:40;9.80;;;6.67;;
60306;SDS011;46155;52.364;6.580;2022-10-16T11:50:56;17.53;;;7.70;;
60306;SDS011;46155;52.364;6.580;2022-10-16T11:53:46;14.10;;;5.67;;
60306;SDS011;46155;52.364;6.580;2022-10-16T11:56:16;8.87;;;5.47;;
60306;SDS011;46155;52.364;6.580;2022-10-16T12:03:41;7.50;;;5.90;;
60306;SDS011;46155;52.364;6.580;2022-10-16T12:06:16;7.90;;;6.30;;
60306;SDS011;46155;52.364;6.580;2022-10-16T12:08:55;8.73;;;5.63;;
60306;SDS011;46155;52.364;6.580;2022-10-16T12:13:52;6.70;;;6.10;;
60306;SDS011;46155;52.364;6.580;2022-10-16T12:19:27;6.97;;;6.13;;
60306;SDS011;46155;52.364;6.580;2022-10-16T12:21:58;7.13;;;5.70;;
60306;SDS011;46155;52.364;6.580;2022-10-16T12:27:04;8.23;;;6.37;;
60306;SDS011;46155;52.364;6.580;2022-10-16T12:29:38;5.97;;;5.47;;
60306;SDS011;46155;52.364;6.580;2022-10-16T12:32:19;9.73;;;6.30;;
60306;SDS011;46155;52.364;6.580;2022-10-16T12:34:52;11.53;;;5.83;;
60306;SDS011;46155;52.364;6.580;2022-10-16T12:37:21;5.33;;;4.90;;
60306;SDS011;46155;52.364;6.580;2022-10-16T12:39:49;8.57;;;6.07;;
60306;SDS011;46155;52.364;6.580;2022-10-16T12:44:52;7.83;;;5.80;;
60306;SDS011;46155;52.364;6.580;2022-10-16T12:49:55;12.17;;;6.57;;
60306;SDS011;46155;52.364;6.580;2022-10-16T12:54:58;5.73;;;5.33;;
60306;SDS011;46155;52.364;6.580;2022-10-16T13:08:25;5.90;;;5.33;;
60306;SDS011;46155;52.364;6.580;2022-10-16T13:11:04;6.77;;;5.73;;
60306;SDS011;46155;52.364;6.580;2022-10-16T13:16:35;11.97;;;6.30;;
60306;SDS011;46155;52.364;6.580;2022-10-16T13:19:21;6.47;;;5.97;;
60306;SDS011;46155;52.364;6.580;2022-10-16T13:27:52;9.40;;;6.00;;
60306;SDS011;46155;52.364;6.580;2022-10-16T13:35:26;5.77;;;5.37;;
60306;SDS011;46155;52.364;6.580;2022-10-16T13:45:54;9.67;;;5.40;;
60306;SDS011;46155;52.364;6.580;2022-10-16T13:48:22;7.87;;;5.83;;
60306;SDS011;46155;52.364;6.580;2022-10-16T13:50:57;6.63;;;5.07;;
60306;SDS011;46155;52.364;6.580;2022-10-16T13:53:26;5.63;;;5.13;;
60306;SDS011;46155;52.364;6.580;2022-10-16T13:55:52;4.90;;;4.50;;
60306;SDS011;46155;52.364;6.580;2022-10-16T13:58:17;8.40;;;5.10;;
60306;SDS011;46155;52.364;6.580;2022-10-16T14:00:53;11.07;;;5.80;;
60306;SDS011;46155;52.364;6.580;2022-10-16T14:03:23;6.17;;;5.30;;
60306;SDS011;46155;52.364;6.580;2022-10-16T14:05:50;7.33;;;5.27;;
60306;SDS011;46155;52.364;6.580;2022-10-16T14:08:27;8.17;;;5.70;;
60306;SDS011;46155;52.364;6.580;2022-10-16T14:10:55;6.13;;;5.07;;
60306;SDS011;46155;52.364;6.580;2022-10-16T14:13:44;6.87;;;5.63;;
60306;SDS011;46155;52.364;6.580;2022-10-16T14:16:10;11.53;;;5.40;;
60306;SDS011;46155;52.364;6.580;2022-10-16T14:18:41;8.47;;;5.50;;
60306;SDS011;46155;52.364;6.580;2022-10-16T14:21:12;9.10;;;5.70;;
60306;SDS011;46155;52.364;6.580;2022-10-16T14:23:41;7.43;;;5.67;;
60306;SDS011;46155;52.364;6.580;2022-10-16T14:28:33;7.77;;;5.27;;
60306;SDS011;46155;52.364;6.580;2022-10-16T14:30:59;9.80;;;5.40;;
60306;SDS011;46155;52.364;6.580;2022-10-16T14:36:02;14.17;;;6.17;;
60306;SDS011;46155;52.364;6.580;2022-10-16T14:38:36;12.23;;;5.50;;
60306;SDS011;46155;52.364;6.580;2022-10-16T14:41:04;10.80;;;5.20;;
60306;SDS011;46155;52.364;6.580;2022-10-16T14:43:36;6.07;;;5.37;;
60306;SDS011;46155;52.364;6.580;2022-10-16T14:46:06;16.90;;;5.40;;
60306;SDS011;46155;52.364;6.580;2022-10-16T14:48:39;5.77;;;5.23;;
60306;SDS011;46155;52.364;6.580;2022-10-16T14:51:08;5.80;;;5.30;;
60306;SDS011;46155;52.364;6.580;2022-10-16T14:53:38;8.73;;;5.67;;
60306;SDS011;46155;52.364;6.580;2022-10-16T14:56:22;9.13;;;5.27;;
60306;SDS011;46155;52.364;6.580;2022-10-16T14:58:50;6.90;;;6.20;;
60306;SDS011;46155;52.364;6.580;2022-10-16T15:01:16;7.77;;;5.80;;
60306;SDS011;46155;52.364;6.580;2022-10-16T15:03:42;9.30;;;6.00;;
60306;SDS011;46155;52.364;6.580;2022-10-16T15:06:11;8.83;;;5.07;;
60306;SDS011;46155;52.364;6.580;2022-10-16T15:08:38;7.30;;;5.43;;
60306;SDS011;46155;52.364;6.580;2022-10-16T15:11:03;8.13;;;6.00;;
60306;SDS011;46155;52.364;6.580;2022-10-16T15:13:29;12.80;;;5.63;;
60306;SDS011;46155;52.364;6.580;2022-10-16T15:15:54;8.50;;;5.57;;
60306;SDS011;46155;52.364;6.580;2022-10-16T15:18:20;8.13;;;6.53;;
60306;SDS011;46155;52.364;6.580;2022-10-16T15:20:49;9.73;;;5.80;;
60306;SDS011;46155;52.364;6.580;2022-10-16T15:23:20;8.00;;;5.57;;
60306;SDS011;46155;52.364;6.580;2022-10-16T15:25:50;14.33;;;6.00;;
60306;SDS011;46155;52.364;6.580;2022-10-16T15:28:20;9.00;;;4.90;;
60306;SDS011;46155;52.364;6.580;2022-10-16T15:30:48;16.57;;;5.90;;
60306;SDS011;46155;52.364;6.580;2022-10-16T15:33:16;9.67;;;5.93;;
60306;SDS011;46155;52.364;6.580;2022-10-16T15:35:45;5.97;;;5.20;;
60306;SDS011;46155;52.364;6.580;2022-10-16T15:38:12;6.03;;;5.50;;
60306;SDS011;46155;52.364;6.580;2022-10-16T15:40:38;8.90;;;5.30;;
60306;SDS011;46155;52.364;6.580;2022-10-16T15:43:04;10.90;;;5.97;;
60306;SDS011;46155;52.364;6.580;2022-10-16T15:45:30;10.73;;;5.73;;
60306;SDS011;46155;52.364;6.580;2022-10-16T15:47:55;12.63;;;6.30;;
60306;SDS011;46155;52.364;6.580;2022-10-16T15:50:20;6.63;;;5.83;;
60306;SDS011;46155;52.364;6.580;2022-10-16T15:52:46;12.20;;;5.47;;
60306;SDS011;46155;52.364;6.580;2022-10-16T15:55:12;9.70;;;5.37;;
60306;SDS011;46155;52.364;6.580;2022-10-16T15:57:39;9.07;;;5.97;;
60306;SDS011;46155;52.364;6.580;2022-10-16T16:00:07;11.33;;;6.13;;
60306;SDS011;46155;52.364;6.580;2022-10-16T16:02:33;5.43;;;5.13;;
60306;SDS011;46155;52.364;6.580;2022-10-16T16:04:59;9.40;;;5.33;;
60306;SDS011;46155;52.364;6.580;2022-10-16T16:07:25;7.30;;;5.77;;
60306;SDS011;46155;52.364;6.580;2022-10-16T16:09:50;7.13;;;5.80;;
60306;SDS011;46155;52.364;6.580;2022-10-16T16:12:15;8.83;;;6.00;;
60306;SDS011;46155;52.364;6.580;2022-10-16T16:14:40;7.07;;;5.93;;
60306;SDS011;46155;52.364;6.580;2022-10-16T16:17:06;8.33;;;6.20;;
60306;SDS011;46155;52.364;6.580;2022-10-16T16:19:32;8.03;;;6.67;;
60306;SDS011;46155;52.364;6.580;2022-10-16T16:21:58;14.67;;;6.90;;
60306;SDS011;46155;52.364;6.580;2022-10-16T16:24:23;6.23;;;5.83;;
60306;SDS011;46155;52.364;6.580;2022-10-16T16:26:48;7.23;;;6.40;;
60306;SDS011;46155;52.364;6.580;2022-10-16T16:29:14;10.93;;;6.73;;
60306;SDS011;46155;52.364;6.580;2022-10-16T16:31:40;13.30;;;7.10;;
60306;SDS011;46155;52.364;6.580;2022-10-16T16:34:07;11.77;;;8.70;;
60306;SDS011;46155;52.364;6.580;2022-10-16T16:36:33;7.53;;;6.90;;
60306;SDS011;46155;52.364;6.580;2022-10-16T16:38:59;8.33;;;7.53;;
60306;SDS011;46155;52.364;6.580;2022-10-16T16:41:26;9.73;;;7.43;;
60306;SDS011;46155;52.364;6.580;2022-10-16T16:43:53;10.03;;;7.40;;
60306;SDS011;46155;52.364;6.580;2022-10-16T16:46:20;7.57;;;7.07;;
60306;SDS011;46155;52.364;6.580;2022-10-16T16:48:46;8.00;;;7.30;;
60306;SDS011;46155;52.364;6.580;2022-10-16T16:51:13;6.67;;;6.13;;
60306;SDS011;46155;52.364;6.580;2022-10-16T16:53:41;7.60;;;6.90;;
60306;SDS011;46155;52.364;6.580;2022-10-16T16:56:07;8.37;;;7.30;;
60306;SDS011;46155;52.364;6.580;2022-10-16T16:58:33;9.33;;;7.70;;
60306;SDS011;46155;52.364;6.580;2022-10-16T17:00:59;9.23;;;7.23;;
60306;SDS011;46155;52.364;6.580;2022-10-16T17:03:30;9.03;;;7.87;;
60306;SDS011;46155;52.364;6.580;2022-10-16T17:06:00;9.63;;;8.73;;
60306;SDS011;46155;52.364;6.580;2022-10-16T17:08:28;12.57;;;9.03;;
60306;SDS011;46155;52.364;6.580;2022-10-16T17:10:54;10.53;;;9.40;;
60306;SDS011;46155;52.364;6.580;2022-10-16T17:13:22;11.83;;;9.10;;
60306;SDS011;46155;52.364;6.580;2022-10-16T17:15:48;9.67;;;8.67;;
60306;SDS011;46155;52.364;6.580;2022-10-16T17:18:16;10.47;;;9.10;;
60306;SDS011;46155;52.364;6.580;2022-10-16T17:20:41;12.90;;;10.23;;
60306;SDS011;46155;52.364;6.580;2022-10-16T17:23:08;18.17;;;10.27;;
60306;SDS011;46155;52.364;6.580;2022-10-16T17:25:35;10.27;;;9.40;;
60306;SDS011;46155;52.364;6.580;2022-10-16T17:28:01;10.77;;;9.73;;
60306;SDS011;46155;52.364;6.580;2022-10-16T17:30:26;11.00;;;10.00;;
60306;SDS011;46155;52.364;6.580;2022-10-16T17:32:52;12.43;;;9.93;;
60306;SDS011;46155;52.364;6.580;2022-10-16T17:35:17;10.07;;;9.10;;
60306;SDS011;46155;52.364;6.580;2022-10-16T17:37:42;13.70;;;9.50;;
60306;SDS011;46155;52.364;6.580;2022-10-16T17:40:08;17.90;;;9.40;;
60306;SDS011;46155;52.364;6.580;2022-10-16T17:42:34;11.20;;;9.17;;
60306;SDS011;46155;52.364;6.580;2022-10-16T17:45:00;14.27;;;10.63;;
60306;SDS011;46155;52.364;6.580;2022-10-16T17:47:26;12.53;;;10.03;;
60306;SDS011;46155;52.364;6.580;2022-10-16T17:49:52;11.43;;;10.50;;
60306;SDS011;46155;52.364;6.580;2022-10-16T17:52:17;10.23;;;9.20;;
60306;SDS011;46155;52.364;6.580;2022-10-16T17:54:42;10.80;;;9.63;;
60306;SDS011;46155;52.364;6.580;2022-10-16T17:57:08;10.43;;;9.60;;
60306;SDS011;46155;52.364;6.580;2022-10-16T17:59:33;13.80;;;12.43;;
60306;SDS011;46155;52.364;6.580;2022-10-16T18:01:59;15.20;;;11.13;;
60306;SDS011;46155;52.364;6.580;2022-10-16T18:04:24;13.50;;;12.37;;
60306;SDS011;46155;52.364;6.580;2022-10-16T18:06:49;19.30;;;13.03;;
60306;SDS011;46155;52.364;6.580;2022-10-16T18:09:15;17.80;;;12.37;;
60306;SDS011;46155;52.364;6.580;2022-10-16T18:11:42;14.03;;;12.63;;
60306;SDS011;46155;52.364;6.580;2022-10-16T18:14:09;17.20;;;13.97;;
60306;SDS011;46155;52.364;6.580;2022-10-16T18:16:40;19.07;;;12.87;;
60306;SDS011;46155;52.364;6.580;2022-10-16T18:19:05;15.20;;;11.33;;
60306;SDS011;46155;52.364;6.580;2022-10-16T18:21:31;15.73;;;11.87;;
60306;SDS011;46155;52.364;6.580;2022-10-16T18:23:57;13.33;;;12.03;;
60306;SDS011;46155;52.364;6.580;2022-10-16T18:26:23;14.03;;;12.67;;
60306;SDS011;46155;52.364;6.580;2022-10-16T18:28:53;13.40;;;12.27;;
60306;SDS011;46155;52.364;6.580;2022-10-16T18:31:20;18.40;;;14.30;;
60306;SDS011;46155;52.364;6.580;2022-10-16T18:33:47;17.73;;;12.93;;
60306;SDS011;46155;52.364;6.580;2022-10-16T18:36:16;18.00;;;13.93;;
60306;SDS011;46155;52.364;6.580;2022-10-16T18:38:46;16.17;;;13.93;;
60306;SDS011;46155;52.364;6.580;2022-10-16T18:41:11;16.67;;;12.73;;
60306;SDS011;46155;52.364;6.580;2022-10-16T18:43:37;14.23;;;12.73;;
60306;SDS011;46155;52.364;6.580;2022-10-16T18:46:04;14.10;;;12.73;;
60306;SDS011;46155;52.364;6.580;2022-10-16T18:48:32;15.23;;;12.23;;
60306;SDS011;46155;52.364;6.580;2022-10-16T18:51:11;13.30;;;12.00;;
60306;SDS011;46155;52.364;6.580;2022-10-16T18:53:45;17.57;;;13.40;;
60306;SDS011;46155;52.364;6.580;2022-10-16T18:56:13;15.83;;;12.73;;
60306;SDS011;46155;52.364;6.580;2022-10-16T18:58:40;17.03;;;12.83;;
60306;SDS011;46155;52.364;6.580;2022-10-16T19:01:08;20.33;;;14.43;;
60306;SDS011;46155;52.364;6.580;2022-10-16T19:03:36;19.33;;;14.53;;
60306;SDS011;46155;52.364;6.580;2022-10-16T19:06:04;15.83;;;13.27;;
60306;SDS011;46155;52.364;6.580;2022-10-16T19:08:32;14.17;;;12.70;;
60306;SDS011;46155;52.364;6.580;2022-10-16T19:11:02;12.83;;;11.60;;
60306;SDS011;46155;52.364;6.580;2022-10-16T19:13:29;14.90;;;11.17;;
60306;SDS011;46155;52.364;6.580;2022-10-16T19:15:54;15.40;;;11.50;;
60306;SDS011;46155;52.364;6.580;2022-10-16T19:18:20;12.60;;;11.47;;
60306;SDS011;46155;52.364;6.580;2022-10-16T19:20:45;13.27;;;12.07;;
60306;SDS011;46155;52.364;6.580;2022-10-16T19:23:10;12.90;;;11.47;;
60306;SDS011;46155;52.364;6.580;2022-10-16T19:25:36;13.40;;;12.07;;
60306;SDS011;46155;52.364;6.580;2022-10-16T19:28:02;17.20;;;12.97;;
60306;SDS011;46155;52.364;6.580;2022-10-16T19:30:34;13.23;;;12.17;;
60306;SDS011;46155;52.364;6.580;2022-10-16T19:33:00;13.47;;;11.63;;
60306;SDS011;46155;52.364;6.580;2022-10-16T19:35:25;18.83;;;12.82;;
60306;SDS011;46155;52.364;6.580;2022-10-16T19:37:51;13.23;;;11.57;;